Time;durP1;ratioP1;P1;durP2;ratioP2;P2;SDS_P1;SDS_P2;PMS_P1;PMS_P2;Temp;Humidity;BMP_temperature;BMP_pressure;BME280_temperature;BME280_humidity;BME280_pressure;Samples;Min_cycle;Max_cycle;Signal;HPM_P1;HPM_P2
2023/08/06 00:00:02;;;;;;;10.48;5.68;;;;;;;24.46;nan;60667.09;5015750;28;20567;-76
2023/08/06 00:02:28;;;;;;;8.98;5.70;;;;;;;24.04;nan;60268.56;5015677;28;20171;-80
2023/08/06 00:04:53;;;;;;;9.50;5.85;;;;;;;24.10;nan;59669.78;5016168;28;20168;-77
2023/08/06 00:07:18;;;;;;;7.75;5.75;;;;;;;23.96;nan;59166.66;5015801;28;20178;-77
2023/08/06 00:09:44;;;;;;;8.88;5.40;;;;;;;24.20;nan;59605.13;5014442;28;20606;-78
2023/08/06 00:12:09;;;;;;;7.70;5.50;;;;;;;23.94;nan;59005.38;5014103;28;20176;-78
2023/08/06 00:14:34;;;;;;;9.13;6.00;;;;;;;23.90;nan;58654.75;5015306;28;20192;-79
2023/08/06 00:17:00;;;;;;;7.30;5.20;;;;;;;24.11;nan;59057.78;5015552;28;20612;-78
2023/08/06 00:19:25;;;;;;;10.50;5.60;;;;;;;23.99;nan;58914.88;5014668;28;20172;-77
2023/08/06 00:21:51;;;;;;;8.05;5.50;;;;;;;23.87;nan;57358.44;5014057;28;20584;-79
2023/08/06 00:24:16;;;;;;;13.38;5.78;;;;;;;24.03;nan;58065.84;5014058;28;20335;-77
2023/08/06 00:26:42;;;;;;;7.55;5.10;;;;;;;23.64;nan;56351.91;5013520;28;20555;-77
2023/08/06 00:29:07;;;;;;;9.27;5.50;;;;;;;23.78;nan;56330.59;5013865;28;20350;-77
2023/08/06 00:31:32;;;;;;;11.80;6.18;;;;;;;23.84;nan;55463.56;5013505;28;20630;-77
2023/08/06 00:33:58;;;;;;;8.65;6.25;;;;;;;23.79;nan;54721.38;5013359;28;20223;-78
2023/08/06 00:36:23;;;;;;;7.45;5.22;;;;;;;23.71;nan;53294.97;5014714;28;20259;-78
2023/08/06 00:38:48;;;;;;;7.32;5.55;;;;;;;23.85;nan;53177.72;5013505;28;20179;-77
2023/08/06 00:41:14;;;;;;;10.07;6.75;;;;;;;23.85;nan;53652.03;5013369;28;20219;-77
2023/08/06 00:43:39;;;;;;;10.23;6.53;;;;;;;23.55;nan;51752.03;5014654;28;20202;-78
2023/08/06 00:46:05;;;;;;;10.88;6.40;;;;;;;23.78;nan;50540.78;5014324;28;20206;-77
2023/08/06 00:48:31;;;;;;;10.27;6.30;;;;;;;23.62;nan;47645.84;5014817;28;20611;-78
2023/08/06 00:50:56;;;;;;;11.25;6.38;;;;;;;23.46;nan;46852.81;5014280;28;20607;-77
2023/08/06 00:53:22;;;;;;;9.63;6.85;;;;;;;23.61;nan;47541.50;5014476;28;20294;-77
2023/08/06 00:55:48;;;;;;;9.95;6.30;;;;;;;23.76;nan;47391.28;5014307;28;20175;-77
2023/08/06 00:58:17;;;;;;;8.82;5.75;;;;;;;23.67;nan;44664.22;5013189;28;20262;-78
2023/08/06 01:00:43;;;;;;;9.48;6.53;;;;;;;23.61;nan;42884.16;5020102;28;20215;-77
2023/08/06 01:03:08;;;;;;;9.20;6.45;;;;;;;23.66;nan;42260.44;5014550;28;20188;-78
2023/08/06 01:05:34;;;;;;;9.77;6.43;;;;;;;23.62;nan;40846.47;5013584;28;20179;-78
2023/08/06 01:08:31;;;;;;;9.82;6.38;;;;;;;23.59;nan;35615.91;5013229;28;20734;-78
2023/08/06 01:11:05;;;;;;;13.02;6.60;;;;;;;23.55;nan;34619.66;5012715;28;20180;-79
2023/08/06 01:13:43;;;;;;;11.02;6.50;;;;;;;23.43;nan;33287.06;5014022;28;20290;-78
2023/08/06 01:16:09;;;;;;;10.90;6.38;;;;;;;23.48;nan;31304.69;5014440;28;20191;-79
2023/08/06 01:18:37;;;;;;;12.75;6.50;;;;;;;23.56;nan;34951.59;5012998;28;20219;-79
2023/08/06 01:21:02;;;;;;;11.18;6.82;;;;;;;23.34;nan;33281.09;5012782;28;20183;-78
2023/08/06 01:23:28;;;;;;;13.13;6.38;;;;;;;23.41;nan;33616.75;5013829;28;20172;-77
2023/08/06 01:26:04;;;;;;;10.15;6.57;;;;;;;23.54;nan;33625.47;5014393;28;20172;-78
2023/08/06 01:28:38;;;;;;;9.38;6.65;;;;;;;23.68;nan;33966.06;5012409;28;20227;-79
2023/08/06 01:31:07;;;;;;;10.27;6.65;;;;;;;23.70;nan;35292.59;5013722;28;20638;-78
2023/08/06 01:33:36;;;;;;;9.15;6.43;;;;;;;23.74;nan;38756.03;5013799;28;20196;-79
2023/08/06 01:36:02;;;;;;;12.32;6.22;;;;;;;23.77;nan;37939.03;5012062;28;20266;-79
2023/08/06 01:38:28;;;;;;;11.77;6.85;;;;;;;23.97;nan;41646.81;5012380;28;20183;-80
2023/08/06 01:40:53;;;;;;;9.40;6.05;;;;;;;23.90;nan;42068.94;5012490;28;20172;-80
2023/08/06 01:43:19;;;;;;;9.77;6.85;;;;;;;24.01;nan;44645.97;5013406;28;20190;-79
2023/08/06 01:45:44;;;;;;;9.13;5.78;;;;;;;23.81;nan;39494.53;5013283;28;20174;-79
2023/08/06 01:48:10;;;;;;;11.73;6.80;;;;;;;23.74;nan;36032.97;5012233;28;20180;-77
2023/08/06 01:50:35;;;;;;;9.18;6.13;;;;;;;23.56;nan;32964.63;5013702;28;20171;-79
2023/08/06 01:53:01;;;;;;;10.15;6.20;;;;;;;23.65;nan;32970.22;5011972;28;20215;-79
2023/08/06 01:55:26;;;;;;;9.38;6.93;;;;;;;23.61;nan;30982.00;5012057;28;20179;-79
2023/08/06 01:57:51;;;;;;;9.88;6.10;;;;;;;23.54;nan;33294.03;5011792;28;20601;-78
2023/08/06 02:00:17;;;;;;;8.07;6.10;;;;;;;23.64;nan;31645.75;5013770;28;20168;-78
2023/08/06 02:02:42;;;;;;;9.75;6.18;;;;;;;23.59;nan;36610.41;5011945;28;20179;-80
2023/08/06 02:05:08;;;;;;;9.10;6.40;;;;;;;23.91;nan;42007.44;5011430;28;20176;-79
2023/08/06 02:07:33;;;;;;;9.15;6.40;;;;;;;23.97;nan;43787.78;5013344;28;20168;-78
2023/08/06 02:09:58;;;;;;;9.55;6.13;;;;;;;24.00;nan;44232.16;5013394;28;20613;-79
2023/08/06 02:12:24;;;;;;;7.60;5.70;;;;;;;23.83;nan;44347.66;5012939;28;20187;-79
2023/08/06 02:14:49;;;;;;;8.45;5.75;;;;;;;24.00;nan;45824.03;5011630;28;20267;-79
2023/08/06 02:17:14;;;;;;;8.70;6.05;;;;;;;24.09;nan;46333.44;5011639;28;20182;-78
2023/08/06 02:19:40;;;;;;;11.85;6.53;;;;;;;24.03;nan;46063.53;5012535;28;20176;-79
2023/08/06 02:22:05;;;;;;;9.02;6.20;;;;;;;23.93;nan;46153.09;5013315;28;20554;-79
2023/08/06 02:24:31;;;;;;;10.57;6.85;;;;;;;24.04;nan;47025.56;5013305;28;20168;-80
2023/08/06 02:26:56;;;;;;;9.85;6.60;;;;;;;24.07;nan;47776.91;5011380;28;20238;-79
2023/08/06 02:29:21;;;;;;;10.32;6.15;;;;;;;23.96;nan;47723.25;5011596;28;20222;-79
2023/08/06 02:31:47;;;;;;;11.23;6.28;;;;;;;24.07;nan;46734.50;5012492;28;20172;-80
2023/08/06 02:34:12;;;;;;;10.05;6.20;;;;;;;24.00;nan;44956.38;5011252;28;20750;-79
2023/08/06 02:36:38;;;;;;;9.55;6.28;;;;;;;23.91;nan;46850.72;5012693;28;20168;-78
2023/08/06 02:39:03;;;;;;;7.85;5.90;;;;;;;23.99;nan;44896.22;5012736;28;20239;-79
2023/08/06 02:41:29;;;;;;;10.20;6.20;;;;;;;23.73;nan;43142.69;5011225;28;20180;-78
2023/08/06 02:43:54;;;;;;;10.32;6.60;;;;;;;23.73;nan;42266.13;5012371;28;20202;-79
2023/08/06 02:46:19;;;;;;;11.65;6.88;;;;;;;23.75;nan;41585.09;5012599;28;20654;-79
2023/08/06 02:48:45;;;;;;;10.02;7.03;;;;;;;23.75;nan;42026.06;5010887;28;20172;-80
2023/08/06 02:51:10;;;;;;;9.77;6.25;;;;;;;23.78;nan;42949.59;5011033;28;20627;-78
2023/08/06 02:53:35;;;;;;;11.55;6.65;;;;;;;23.45;nan;37475.09;5012512;28;20295;-79
2023/08/06 02:56:01;;;;;;;13.57;7.63;;;;;;;23.41;nan;32954.41;5012585;28;20176;-79
2023/08/06 02:58:26;;;;;;;10.45;7.45;;;;;;;23.66;nan;35289.81;5011007;28;20220;-79
2023/08/06 03:01:02;;;;;;;10.45;7.18;;;;;;;23.66;nan;35620.84;5010961;28;20179;-80
2023/08/06 03:03:28;;;;;;;13.55;8.18;;;;;;;23.57;nan;33296.38;5011813;28;20217;-80
2023/08/06 03:05:54;;;;;;;12.23;7.93;;;;;;;23.44;nan;34280.97;5012858;28;20273;-79
2023/08/06 03:08:22;;;;;;;13.00;8.25;;;;;;;23.58;nan;33296.72;5012244;28;20179;-78
2023/08/06 03:10:50;;;;;;;12.60;8.35;;;;;;;23.51;nan;37599.00;5012413;28;20241;-78
2023/08/06 03:13:16;;;;;;;16.92;8.77;;;;;;;23.37;nan;33283.09;5012094;28;20256;-79
2023/08/06 03:15:42;;;;;;;15.18;8.75;;;;;;;23.39;nan;31960.69;5012095;28;20183;-79
2023/08/06 03:18:07;;;;;;;13.82;8.90;;;;;;;23.65;nan;36283.28;5013841;28;20176;-78
2023/08/06 03:20:33;;;;;;;17.15;9.45;;;;;;;23.61;nan;36943.34;5022090;28;20203;-79
2023/08/06 03:22:58;;;;;;;15.68;8.45;;;;;;;23.60;nan;37592.66;5012009;28;20172;-78
2023/08/06 03:25:24;;;;;;;14.48;9.00;;;;;;;23.50;nan;33953.56;5010787;28;20184;-79
2023/08/06 03:27:49;;;;;;;18.30;10.18;;;;;;;23.62;nan;31975.47;5012306;28;20679;-78
2023/08/06 03:30:14;;;;;;;15.13;9.02;;;;;;;23.72;nan;34631.31;5017833;28;20616;-78
2023/08/06 03:32:40;;;;;;;12.60;8.80;;;;;;;23.76;nan;37029.31;5017031;28;20180;-79
2023/08/06 03:35:06;;;;;;;15.10;9.45;;;;;;;23.61;nan;35959.03;5017593;28;20183;-79
2023/08/06 03:37:31;;;;;;;15.18;9.82;;;;;;;23.71;nan;34299.00;5018715;28;20204;-79
2023/08/06 03:39:56;;;;;;;15.30;9.80;;;;;;;23.63;nan;35287.72;5018992;28;20527;-79
2023/08/06 03:42:22;;;;;;;14.23;9.02;;;;;;;23.45;nan;32957.38;5018305;28;20214;-78
2023/08/06 03:44:47;;;;;;;13.07;8.85;;;;;;;23.66;nan;32639.78;5017430;28;20183;-76
2023/08/06 03:47:13;;;;;;;14.52;9.63;;;;;;;23.71;nan;33305.69;5019107;28;20179;-79
2023/08/06 03:49:38;;;;;;;14.95;9.23;;;;;;;23.80;nan;34636.47;5018355;28;20176;-76
2023/08/06 03:52:05;;;;;;;16.63;9.27;;;;;;;23.54;nan;34287.44;5017099;28;20703;-80
2023/08/06 03:54:30;;;;;;;15.52;9.13;;;;;;;23.61;nan;34623.78;5018219;28;20214;-80
2023/08/06 03:56:56;;;;;;;13.82;9.05;;;;;;;23.76;nan;33971.47;5017039;28;20542;-77
2023/08/06 03:59:21;;;;;;;14.82;9.70;;;;;;;23.68;nan;31647.97;5018182;28;20176;-77
2023/08/06 04:01:47;;;;;;;15.32;9.63;;;;;;;23.69;nan;30986.69;5017734;28;20202;-77
2023/08/06 04:04:12;;;;;;;16.23;10.32;;;;;;;23.67;nan;32971.88;5018615;28;20175;-77
2023/08/06 04:06:37;;;;;;;15.90;10.10;;;;;;;23.68;nan;35953.63;5018513;28;20172;-77
2023/08/06 04:09:03;;;;;;;15.35;9.63;;;;;;;23.75;nan;36290.41;5016825;28;20285;-77
2023/08/06 04:11:28;;;;;;;16.15;9.93;;;;;;;23.78;nan;34635.09;5017890;28;20182;-77
2023/08/06 04:13:55;;;;;;;19.67;10.02;;;;;;;23.71;nan;35624.34;5017639;28;20644;-77
2023/08/06 04:16:21;;;;;;;18.48;10.75;;;;;;;23.91;nan;36301.09;5017875;28;20172;-79
2023/08/06 04:18:46;;;;;;;14.82;9.32;;;;;;;23.99;nan;37468.06;5016815;28;20215;-78
2023/08/06 04:21:12;;;;;;;16.98;10.77;;;;;;;24.13;nan;41571.41;5017663;28;20623;-79
2023/08/06 04:23:37;;;;;;;15.82;10.27;;;;;;;24.20;nan;43981.50;5016586;28;20262;-79
2023/08/06 04:26:03;;;;;;;15.43;10.18;;;;;;;24.14;nan;47047.88;5017570;28;20671;-78
2023/08/06 04:28:28;;;;;;;15.40;9.70;;;;;;;24.23;nan;50270.22;5031631;28;20239;-79
2023/08/06 04:30:54;;;;;;;17.00;10.00;;;;;;;24.29;nan;50424.69;5017649;28;20286;-79
2023/08/06 04:33:20;;;;;;;18.42;10.63;;;;;;;24.54;nan;51409.34;5016616;28;20683;-79
2023/08/06 04:35:45;;;;;;;17.77;9.95;;;;;;;24.49;nan;50792.53;5018054;28;20211;-78
2023/08/06 04:38:11;;;;;;;15.70;10.05;;;;;;;24.65;nan;51899.31;5017687;28;20211;-79
2023/08/06 04:40:36;;;;;;;18.35;11.02;;;;;;;24.71;nan;53014.91;5014146;28;20636;-79
2023/08/06 04:43:02;;;;;;;19.90;11.10;;;;;;;24.62;nan;54771.41;5014684;28;20184;-78
2023/08/06 04:45:28;;;;;;;20.48;11.55;;;;;;;24.87;nan;55570.72;5014673;28;20554;-78
2023/08/06 04:47:53;;;;;;;20.23;10.80;;;;;;;24.85;nan;56137.47;5014958;28;20262;-78
2023/08/06 04:50:21;;;;;;;18.63;10.80;;;;;;;25.07;nan;56450.69;5014932;28;20179;-77
2023/08/06 04:52:47;;;;;;;17.58;10.63;;;;;;;25.05;nan;56696.09;5014635;28;20206;-78
2023/08/06 04:55:12;;;;;;;16.88;10.50;;;;;;;25.23;nan;57189.81;5013216;28;20191;-78
2023/08/06 04:57:38;;;;;;;18.58;10.55;;;;;;;25.12;nan;57191.78;5013056;28;20212;-79
2023/08/06 05:00:04;;;;;;;16.65;10.35;;;;;;;25.09;nan;57081.53;5014077;28;20630;-77
2023/08/06 05:02:31;;;;;;;20.38;11.88;;;;;;;25.01;nan;57057.44;5013094;28;20752;-78
2023/08/06 05:04:57;;;;;;;19.83;11.45;;;;;;;25.18;nan;56941.63;5014231;28;20549;-77
2023/08/06 05:07:22;;;;;;;18.35;10.68;;;;;;;25.10;nan;56930.63;5013035;28;20180;-77
2023/08/06 05:09:48;;;;;;;17.85;11.02;;;;;;;25.00;nan;56482.00;5013102;28;20183;-78
2023/08/06 05:12:13;;;;;;;18.25;10.88;;;;;;;24.83;nan;56177.66;5014233;28;20700;-78
2023/08/06 05:14:39;;;;;;;19.40;11.80;;;;;;;24.93;nan;56046.63;5013988;28;20200;-78
2023/08/06 05:17:04;;;;;;;19.27;12.05;;;;;;;24.68;nan;55545.91;5014152;28;20540;-76
2023/08/06 05:19:30;;;;;;;18.42;10.90;;;;;;;24.23;nan;54661.38;5014451;28;20180;-76
2023/08/06 05:21:55;;;;;;;17.52;11.00;;;;;;;24.68;nan;54628.38;5014260;28;20180;-77
2023/08/06 05:24:21;;;;;;;18.58;10.80;;;;;;;24.52;nan;54276.34;5012462;28;20263;-77
2023/08/06 05:26:46;;;;;;;15.05;9.63;;;;;;;24.57;nan;55778.16;5012329;28;20206;-78
2023/08/06 05:29:12;;;;;;;15.15;8.15;;;;;;;24.38;nan;57667.13;5012403;28;20172;-77
2023/08/06 05:31:37;;;;;;;12.10;7.00;;;;;;;24.32;nan;58618.25;5013632;28;20227;-79
2023/08/06 05:34:03;;;;;;;10.23;6.63;;;;;;;24.28;nan;59172.31;5013842;28;20678;-78
2023/08/06 05:36:28;;;;;;;8.70;5.35;;;;;;;24.01;nan;59459.03;5012445;28;20179;-79
2023/08/06 05:38:53;;;;;;;11.98;5.13;;;;;;;24.23;nan;59683.56;5017477;28;20574;-78
2023/08/06 05:41:19;;;;;;;7.68;5.18;;;;;;;23.97;nan;59634.66;5016587;28;20257;-79
2023/08/06 05:43:45;;;;;;;6.45;4.30;;;;;;;24.02;nan;59366.78;5012294;28;20206;-79
2023/08/06 05:46:10;;;;;;;8.10;4.85;;;;;;;23.83;nan;58414.59;5012433;28;20476;-78
2023/08/06 05:48:36;;;;;;;8.77;5.03;;;;;;;23.74;nan;57332.16;5013065;28;20654;-79
2023/08/06 05:51:01;;;;;;;11.25;5.68;;;;;;;23.40;nan;56069.59;5013425;28;20630;-79
2023/08/06 05:53:26;;;;;;;8.00;5.13;;;;;;;23.45;nan;54244.38;5013099;28;20200;-79
2023/08/06 05:55:52;;;;;;;10.50;5.65;;;;;;;23.39;nan;54829.03;5013234;28;20255;-79
2023/08/06 05:58:19;;;;;;;6.90;4.53;;;;;;;23.19;nan;54671.28;5028663;28;20619;-78
2023/08/06 06:00:45;;;;;;;12.90;6.07;;;;;;;23.24;nan;52008.47;5012040;28;20168;-79
2023/08/06 06:03:10;;;;;;;7.88;4.50;;;;;;;23.14;nan;52775.53;5013090;28;20176;-78
2023/08/06 06:05:38;;;;;;;9.68;5.40;;;;;;;23.09;nan;48875.94;5011943;28;20183;-78
2023/08/06 06:08:04;;;;;;;7.95;4.78;;;;;;;23.25;nan;43280.22;5013213;28;20168;-78
2023/08/06 06:10:29;;;;;;;10.02;5.07;;;;;;;23.31;nan;42221.66;5012919;28;20246;-77
2023/08/06 06:12:56;;;;;;;7.65;4.80;;;;;;;23.11;nan;42117.34;5011670;28;20195;-79
2023/08/06 06:15:21;;;;;;;7.97;4.93;;;;;;;22.88;nan;36228.75;5011819;28;20208;-79
2023/08/06 06:17:46;;;;;;;9.80;5.10;;;;;;;23.05;nan;28964.31;5012797;28;20210;-79
2023/08/06 06:20:12;;;;;;;7.82;5.20;;;;;;;22.95;nan;24666.47;5011607;28;20278;-78
2023/08/06 06:22:37;;;;;;;8.88;5.07;;;;;;;22.93;nan;24995.63;5011836;28;20176;-78
2023/08/06 06:25:03;;;;;;;10.60;5.43;;;;;;;22.79;nan;28288.75;5013187;28;20653;-79
2023/08/06 06:27:29;;;;;;;7.60;5.13;;;;;;;22.84;nan;29282.16;5012482;28;20660;-78
2023/08/06 06:29:54;;;;;;;7.68;4.82;;;;;;;22.67;nan;29271.97;5012780;28;20188;-78
2023/08/06 06:32:20;;;;;;;9.93;5.28;;;;;;;22.85;nan;24661.50;5011353;28;20270;-78
2023/08/06 06:34:46;;;;;;;8.18;4.88;;;;;;;22.99;nan;21371.13;5011335;28;20207;-79
2023/08/06 06:37:11;;;;;;;10.25;5.35;;;;;;;22.67;nan;18721.91;5012153;28;20202;-78
2023/08/06 06:39:36;;;;;;;8.80;5.03;;;;;;;22.76;nan;18396.53;5012220;28;20242;-78
2023/08/06 06:42:02;;;;;;;9.80;5.82;;;;;;;22.90;nan;15111.19;5011124;28;20186;-78
2023/08/06 06:44:27;;;;;;;11.32;5.30;;;;;;;22.94;nan;16099.66;5012007;28;20588;-78
2023/08/06 06:46:53;;;;;;;8.25;5.45;;;;;;;23.08;nan;20386.28;5012260;28;20689;-78
2023/08/06 06:49:18;;;;;;;7.90;4.80;;;;;;;22.92;nan;26975.25;5027501;28;20596;-78
2023/08/06 06:51:44;;;;;;;9.35;5.60;;;;;;;23.22;nan;22701.09;5012462;28;20195;-78
2023/08/06 06:54:09;;;;;;;7.85;5.20;;;;;;;23.43;nan;37556.88;5010941;28;20206;-78
2023/08/06 06:56:34;;;;;;;9.43;5.55;;;;;;;23.72;nan;45099.44;5012409;28;20175;-78
2023/08/06 06:59:00;;;;;;;8.88;5.20;;;;;;;23.99;nan;46114.59;5010854;28;20324;-78
2023/08/06 07:01:25;;;;;;;8.32;4.97;;;;;;;23.87;nan;55021.22;5012326;28;20175;-78
2023/08/06 07:03:51;;;;;;;8.43;5.30;;;;;;;23.99;nan;56169.56;5010126;28;20647;-79
2023/08/06 07:06:18;;;;;;;7.93;4.82;;;;;;;24.11;nan;55086.94;5012024;28;20203;-79
2023/08/06 07:08:43;;;;;;;7.95;4.68;;;;;;;24.17;nan;56047.00;5010737;28;20265;-79
2023/08/06 07:11:09;;;;;;;7.78;5.10;;;;;;;24.17;nan;56633.56;5010852;28;20235;-79
2023/08/06 07:13:34;;;;;;;8.38;5.10;;;;;;;24.23;nan;57909.91;5010563;28;20340;-78
2023/08/06 07:16:00;;;;;;;8.13;5.22;;;;;;;24.64;nan;59219.94;5011087;28;20398;-77
2023/08/06 07:18:26;;;;;;;8.98;5.40;;;;;;;24.70;nan;59562.25;5012532;28;20184;-79
2023/08/06 07:20:53;;;;;;;9.63;4.68;;;;;;;24.83;nan;59336.75;5012369;28;20176;-78
2023/08/06 07:23:23;;;;;;;8.98;4.95;;;;;;;25.24;nan;60345.09;5011648;28;20319;-78
2023/08/06 07:25:48;;;;;;;8.10;5.07;;;;;;;25.58;nan;60539.22;5012258;28;20188;-78
2023/08/06 07:28:14;;;;;;;7.78;5.20;;;;;;;25.68;nan;60699.47;5010041;28;20238;-79
2023/08/06 07:30:41;;;;;;;8.32;5.43;;;;;;;26.06;nan;61097.94;5012182;28;20180;-78
2023/08/06 07:33:06;;;;;;;7.65;5.05;;;;;;;26.09;nan;61279.38;5011731;28;20748;-79
2023/08/06 07:35:32;;;;;;;8.73;5.28;;;;;;;25.90;nan;61253.34;5011695;28;20200;-78
2023/08/06 07:37:57;;;;;;;10.77;6.13;;;;;;;25.82;nan;61006.16;5011598;28;20186;-78
2023/08/06 07:40:23;;;;;;;10.45;6.22;;;;;;;25.87;nan;61053.66;5011772;28;20255;-78
2023/08/06 07:42:51;;;;;;;10.75;5.95;;;;;;;25.67;nan;61080.97;5014756;28;20191;-77
2023/08/06 07:45:17;;;;;;;10.27;5.90;;;;;;;25.98;nan;60913.56;5017533;28;20168;-77
2023/08/06 07:47:42;;;;;;;10.52;6.10;;;;;;;26.43;nan;61408.19;5015420;28;20246;-79
2023/08/06 07:50:09;;;;;;;11.40;6.15;;;;;;;26.16;nan;61391.44;5012099;28;20610;-79
2023/08/06 07:52:34;;;;;;;8.85;6.20;;;;;;;25.89;nan;61137.06;5010253;28;20184;-79
2023/08/06 07:55:01;;;;;;;10.63;6.80;;;;;;;25.81;nan;60984.09;5010154;28;20710;-79
2023/08/06 07:57:26;;;;;;;10.77;6.20;;;;;;;25.53;nan;61055.34;5027349;28;20176;-78
2023/08/06 07:59:53;;;;;;;9.93;6.45;;;;;;;25.41;nan;60889.66;5015099;28;20263;-78
2023/08/06 08:02:19;;;;;;;11.55;6.53;;;;;;;24.68;nan;60550.00;5011856;28;20557;-78
2023/08/06 08:04:47;;;;;;;12.27;7.45;;;;;;;25.07;nan;60339.88;5010340;28;20549;-79
2023/08/06 08:07:12;;;;;;;12.93;7.65;;;;;;;25.21;nan;60258.66;5010447;28;20244;-80
2023/08/06 08:09:38;;;;;;;10.88;6.85;;;;;;;24.81;nan;59968.78;5009985;28;20184;-79
2023/08/06 08:12:03;;;;;;;11.73;7.15;;;;;;;24.82;nan;59826.22;5010234;28;20211;-79
2023/08/06 08:14:33;;;;;;;12.43;6.95;;;;;;;24.76;nan;59396.47;5011646;28;20257;-80
2023/08/06 08:16:58;;;;;;;13.10;6.97;;;;;;;24.88;nan;59331.25;5013926;28;20559;-80
2023/08/06 08:19:24;;;;;;;10.38;6.45;;;;;;;24.76;nan;59213.66;5013764;28;20180;-80
2023/08/06 08:21:49;;;;;;;11.48;6.78;;;;;;;24.82;nan;58316.63;5013957;28;20179;-79
2023/08/06 08:24:14;;;;;;;11.45;6.65;;;;;;;24.58;nan;58061.66;5014892;28;20778;-78
2023/08/06 08:26:40;;;;;;;11.45;6.97;;;;;;;24.41;nan;57003.03;5013682;28;20650;-78
2023/08/06 08:29:06;;;;;;;11.88;7.05;;;;;;;24.54;nan;57776.06;5013350;28;20228;-79
2023/08/06 08:31:32;;;;;;;11.98;7.45;;;;;;;24.41;nan;58236.53;5015001;28;20176;-78
2023/08/06 08:33:58;;;;;;;11.68;7.05;;;;;;;24.41;nan;58383.22;5013119;28;20581;-79
2023/08/06 08:36:24;;;;;;;11.80;7.07;;;;;;;24.48;nan;58176.72;5014551;28;20176;-79
2023/08/06 08:38:53;;;;;;;10.00;6.65;;;;;;;24.57;nan;59015.94;5014311;28;20179;-79
2023/08/06 08:41:20;;;;;;;10.82;6.63;;;;;;;24.59;nan;58864.09;5014065;28;20618;-78
2023/08/06 08:43:47;;;;;;;12.85;7.00;;;;;;;24.67;nan;59543.88;5013368;28;20230;-77
2023/08/06 08:46:14;;;;;;;10.68;6.47;;;;;;;24.69;nan;59409.72;5014512;28;20223;-80
2023/08/06 08:48:39;;;;;;;10.73;6.63;;;;;;;24.83;nan;60088.56;5014921;28;20258;-79
2023/08/06 08:51:06;;;;;;;9.90;6.20;;;;;;;25.03;nan;60187.00;5014342;28;20267;-80
2023/08/06 08:53:31;;;;;;;11.35;7.20;;;;;;;25.02;nan;60446.69;5014036;28;20649;-80
2023/08/06 08:55:58;;;;;;;10.63;6.43;;;;;;;25.52;nan;60431.09;5013621;28;20271;-79
2023/08/06 08:58:23;;;;;;;11.82;6.90;;;;;;;26.14;nan;60195.09;5014384;28;20620;-79
2023/08/06 09:00:50;;;;;;;10.27;6.53;;;;;;;26.99;nan;61310.72;5012869;28;20180;-80
2023/08/06 09:03:20;;;;;;;9.07;6.28;;;;;;;27.61;nan;61971.16;5015148;28;20528;-79
2023/08/06 09:05:51;;;;;;;10.88;6.07;;;;;;;27.42;nan;62046.72;5014170;28;20263;-80
2023/08/06 09:08:20;;;;;;;7.43;4.45;;;;;;;27.49;nan;62141.31;5012847;28;21040;-79
2023/08/06 09:10:49;;;;;;;9.63;5.15;;;;;;;27.77;nan;62269.78;5012873;28;20257;-78
2023/08/06 09:13:17;;;;;;;8.20;5.43;;;;;;;28.14;nan;62366.56;5012556;28;20606;-80
2023/08/06 09:15:49;;;;;;;7.32;4.45;;;;;;;28.32;nan;62473.84;5012923;28;20305;-80
2023/08/06 09:18:15;;;;;;;5.25;3.55;;;;;;;28.43;nan;62833.53;5012940;28;20168;-80
2023/08/06 09:20:40;;;;;;;4.40;3.30;;;;;;;28.34;nan;62580.75;5012467;28;20191;-80
2023/08/06 09:23:10;;;;;;;4.35;3.10;;;;;;;28.54;nan;62754.09;5013694;28;20726;-80
2023/08/06 09:25:40;;;;;;;4.47;2.95;;;;;;;28.60;nan;62989.25;5012516;28;20225;-80
2023/08/06 09:28:05;;;;;;;4.13;2.95;;;;;;;28.87;nan;62867.69;5011427;28;20235;-79
2023/08/06 09:30:33;;;;;;;4.60;3.25;;;;;;;28.66;nan;62777.81;5014233;28;20557;-81
2023/08/06 09:33:00;;;;;;;3.92;2.78;;;;;;;29.07;nan;62826.91;5013813;28;20176;-79
2023/08/06 09:35:29;;;;;;;3.70;2.65;;;;;;;29.35;nan;62803.19;5012388;28;20737;-80
2023/08/06 09:37:54;;;;;;;3.65;2.80;;;;;;;28.80;nan;62746.53;5014232;28;20187;-80
2023/08/06 09:40:27;;;;;;;4.15;3.00;;;;;;;29.34;nan;62955.34;5012404;28;20171;-80
2023/08/06 09:42:53;;;;;;;5.10;3.33;;;;;;;29.50;nan;62949.47;5012416;28;20187;-80
2023/08/06 09:45:18;;;;;;;4.38;3.00;;;;;;;29.53;nan;62994.47;5013593;28;20219;-79
2023/08/06 09:47:43;;;;;;;4.50;3.17;;;;;;;29.46;nan;63049.66;5013276;28;20607;-80
2023/08/06 09:50:19;;;;;;;7.03;3.30;;;;;;;29.63;nan;62898.53;5013325;28;20599;-80
2023/08/06 09:52:46;;;;;;;5.32;3.70;;;;;;;30.01;nan;63006.94;5013330;28;20213;-78
2023/08/06 09:55:12;;;;;;;5.60;3.75;;;;;;;30.02;nan;63245.38;5013779;28;20182;-78
2023/08/06 09:57:38;;;;;;;6.40;3.90;;;;;;;30.22;nan;63139.22;5011966;28;20532;-79
2023/08/06 10:00:05;;;;;;;6.50;4.30;;;;;;;29.69;nan;63097.19;5011673;28;20190;-79
2023/08/06 10:02:31;;;;;;;6.03;3.85;;;;;;;29.85;nan;63079.28;5013213;28;20176;-78
2023/08/06 10:04:58;;;;;;;6.85;4.53;;;;;;;29.47;nan;63006.59;5013189;28;20225;-79
2023/08/06 10:07:24;;;;;;;6.78;4.40;;;;;;;29.75;nan;62959.72;5011708;28;20221;-77
2023/08/06 10:09:49;;;;;;;7.20;3.65;;;;;;;30.11;nan;63042.16;5013183;28;20582;-79
2023/08/06 10:12:18;;;;;;;6.72;4.75;;;;;;;30.33;nan;63185.59;5013116;28;20270;-78
2023/08/06 10:14:45;;;;;;;7.82;4.55;;;;;;;30.13;nan;63153.16;5013516;28;20210;-77
2023/08/06 10:17:11;;;;;;;7.43;4.72;;;;;;;29.97;nan;63036.59;5033873;28;20175;-78
2023/08/06 10:19:36;;;;;;;5.43;3.90;;;;;;;30.15;nan;63178.63;5013680;28;20639;-78
2023/08/06 10:22:16;;;;;;;6.85;4.53;;;;;;;30.23;nan;63106.09;5012907;28;20559;-79
2023/08/06 10:24:50;;;;;;;6.07;3.88;;;;;;;30.40;nan;63099.25;5012736;28;20175;-78
2023/08/06 10:27:28;;;;;;;5.68;3.97;;;;;;;30.41;nan;63068.75;5012370;28;20219;-78
2023/08/06 10:29:54;;;;;;;6.10;3.90;;;;;;;30.28;nan;63167.22;5012896;28;20258;-82
2023/08/06 10:32:19;;;;;;;5.30;3.75;;;;;;;30.31;nan;63175.94;5012709;28;20625;-78
2023/08/06 10:34:57;;;;;;;5.90;4.22;;;;;;;30.36;nan;63181.13;5012870;28;20214;-78
2023/08/06 10:37:24;;;;;;;6.60;4.10;;;;;;;30.09;nan;63024.63;5011309;28;20182;-77
2023/08/06 10:39:53;;;;;;;7.65;4.20;;;;;;;30.22;nan;63044.25;5011422;28;20183;-77
2023/08/06 10:42:29;;;;;;;5.88;3.90;;;;;;;30.59;nan;63128.50;5012729;28;20501;-80
2023/08/06 10:45:14;;;;;;;5.88;4.10;;;;;;;31.08;nan;63284.72;5012492;28;20179;-79
2023/08/06 10:47:40;;;;;;;4.68;3.53;;;;;;;31.20;nan;63317.06;5012623;28;20168;-80
2023/08/06 10:50:08;;;;;;;5.95;3.95;;;;;;;31.41;nan;63312.22;5011005;28;20286;-78
2023/08/06 10:52:34;;;;;;;5.70;3.95;;;;;;;31.69;nan;63435.91;5012627;28;20625;-78
2023/08/06 10:55:00;;;;;;;5.55;4.18;;;;;;;31.75;nan;63385.25;5012993;28;20199;-80
2023/08/06 10:57:25;;;;;;;5.57;3.80;;;;;;;31.55;nan;63317.81;5012310;28;20183;-79
2023/08/06 10:59:51;;;;;;;6.15;4.60;;;;;;;31.45;nan;63400.81;5011316;28;20206;-80
2023/08/06 11:02:16;;;;;;;5.70;3.90;;;;;;;31.26;nan;63334.53;5011013;28;20657;-79
2023/08/06 11:04:42;;;;;;;5.80;3.97;;;;;;;31.12;nan;63334.25;5010550;28;20179;-79
2023/08/06 11:07:07;;;;;;;5.32;3.35;;;;;;;31.47;nan;63364.06;5011062;28;20287;-79
2023/08/06 11:09:33;;;;;;;5.00;3.72;;;;;;;31.42;nan;63323.94;5012118;28;20182;-79
2023/08/06 11:11:58;;;;;;;5.32;3.83;;;;;;;31.16;nan;63301.88;5011150;28;20265;-78
2023/08/06 11:14:23;;;;;;;5.93;3.65;;;;;;;31.56;nan;63361.25;5012350;28;20203;-78
2023/08/06 11:16:50;;;;;;;4.95;3.38;;;;;;;31.71;nan;63385.34;5012360;28;20171;-77
2023/08/06 11:19:16;;;;;;;5.00;3.45;;;;;;;32.10;nan;63466.84;5010357;28;20190;-78
2023/08/06 11:21:43;;;;;;;3.97;2.95;;;;;;;32.01;nan;63452.31;5012256;28;20175;-78
2023/08/06 11:24:10;;;;;;;5.45;3.80;;;;;;;32.17;nan;63504.06;5012315;28;20243;-78
2023/08/06 11:26:36;;;;;;;5.20;3.65;;;;;;;31.96;nan;63438.00;5011981;28;20179;-78
2023/08/06 11:29:03;;;;;;;4.40;3.45;;;;;;;32.06;nan;63404.59;5009914;28;20242;-79
2023/08/06 11:31:28;;;;;;;4.88;3.58;;;;;;;32.14;nan;63455.63;5010907;28;20237;-80
2023/08/06 11:33:54;;;;;;;4.47;3.20;;;;;;;31.88;nan;63293.91;5012485;28;20199;-79
2023/08/06 11:36:33;;;;;;;4.00;3.20;;;;;;;31.88;nan;63376.47;5011902;28;20179;-80
2023/08/06 11:39:00;;;;;;;5.03;3.08;;;;;;;31.94;nan;63419.84;5010978;28;20233;-79
2023/08/06 11:41:28;;;;;;;4.20;3.17;;;;;;;31.58;nan;63228.19;5018635;28;20254;-78